sensor_id;sensor_type;location;lat;lon;timestamp;P1;durP1;ratioP1;P2;durP2;ratioP2
11098;SDS011;12223;42.650;23.364;2022-10-16T00:01:15;21.57;;;19.77;;
11098;SDS011;12223;42.650;23.364;2022-10-16T00:03:46;39.00;;;36.50;;
11098;SDS011;12223;42.650;23.364;2022-10-16T00:06:14;28.30;;;26.37;;
11098;SDS011;12223;42.650;23.364;2022-10-16T00:08:42;49.70;;;46.93;;
11098;SDS011;12223;42.650;23.364;2022-10-16T00:11:09;48.93;;;46.30;;
11098;SDS011;12223;42.650;23.364;2022-10-16T00:13:38;37.27;;;35.07;;
11098;SDS011;12223;42.650;23.364;2022-10-16T00:16:07;28.63;;;26.60;;
11098;SDS011;12223;42.650;23.364;2022-10-16T00:18:35;28.10;;;26.00;;
11098;SDS011;12223;42.650;23.364;2022-10-16T00:21:04;43.17;;;40.63;;
11098;SDS011;12223;42.650;23.364;2022-10-16T00:23:33;103.20;;;98.43;;
11098;SDS011;12223;42.650;23.364;2022-10-16T00:26:01;139.07;;;132.40;;
11098;SDS011;12223;42.650;23.364;2022-10-16T00:28:30;121.97;;;116.30;;
11098;SDS011;12223;42.650;23.364;2022-10-16T00:30:57;117.53;;;112.33;;
11098;SDS011;12223;42.650;23.364;2022-10-16T00:33:24;170.93;;;162.63;;
11098;SDS011;12223;42.650;23.364;2022-10-16T00:35:51;151.50;;;144.43;;
11098;SDS011;12223;42.650;23.364;2022-10-16T00:38:19;133.63;;;127.27;;
11098;SDS011;12223;42.650;23.364;2022-10-16T00:40:46;135.10;;;128.70;;
11098;SDS011;12223;42.650;23.364;2022-10-16T00:43:14;147.07;;;139.77;;
11098;SDS011;12223;42.650;23.364;2022-10-16T00:46:02;28.50;;;26.10;;
11098;SDS011;12223;42.650;23.364;2022-10-16T00:48:30;24.33;;;22.10;;
11098;SDS011;12223;42.650;23.364;2022-10-16T00:50:58;123.70;;;117.60;;
11098;SDS011;12223;42.650;23.364;2022-10-16T00:53:26;196.50;;;186.77;;
11098;SDS011;12223;42.650;23.364;2022-10-16T00:55:54;114.23;;;109.10;;
11098;SDS011;12223;42.650;23.364;2022-10-16T00:58:21;47.70;;;45.07;;
11098;SDS011;12223;42.650;23.364;2022-10-16T01:00:48;35.20;;;32.80;;
11098;SDS011;12223;42.650;23.364;2022-10-16T01:03:22;44.03;;;41.40;;
11098;SDS011;12223;42.650;23.364;2022-10-16T01:05:55;33.83;;;31.70;;
11098;SDS011;12223;42.650;23.364;2022-10-16T01:08:36;22.20;;;20.37;;
11098;SDS011;12223;42.650;23.364;2022-10-16T01:11:11;16.30;;;14.97;;
11098;SDS011;12223;42.650;23.364;2022-10-16T01:13:51;30.13;;;28.23;;
11098;SDS011;12223;42.650;23.364;2022-10-16T01:16:23;23.67;;;21.60;;
11098;SDS011;12223;42.650;23.364;2022-10-16T01:18:57;18.73;;;16.80;;
11098;SDS011;12223;42.650;23.364;2022-10-16T01:21:35;22.37;;;19.77;;
11098;SDS011;12223;42.650;23.364;2022-10-16T01:24:08;33.47;;;30.87;;
11098;SDS011;12223;42.650;23.364;2022-10-16T01:29:50;24.43;;;22.77;;
11098;SDS011;12223;42.650;23.364;2022-10-16T01:32:23;22.73;;;21.23;;
11098;SDS011;12223;42.650;23.364;2022-10-16T01:34:56;34.77;;;32.07;;
11098;SDS011;12223;42.650;23.364;2022-10-16T01:37:30;20.13;;;18.23;;
11098;SDS011;12223;42.650;23.364;2022-10-16T01:40:01;18.20;;;16.70;;
11098;SDS011;12223;42.650;23.364;2022-10-16T01:42:33;28.83;;;27.07;;
11098;SDS011;12223;42.650;23.364;2022-10-16T01:45:05;24.93;;;23.30;;
11098;SDS011;12223;42.650;23.364;2022-10-16T01:47:36;22.83;;;21.07;;
11098;SDS011;12223;42.650;23.364;2022-10-16T01:50:04;21.53;;;19.93;;
11098;SDS011;12223;42.650;23.364;2022-10-16T01:52:34;29.37;;;27.43;;
11098;SDS011;12223;42.650;23.364;2022-10-16T01:55:04;26.10;;;24.27;;
11098;SDS011;12223;42.650;23.364;2022-10-16T01:57:35;41.80;;;39.30;;
11098;SDS011;12223;42.650;23.364;2022-10-16T02:00:07;25.33;;;23.53;;
11098;SDS011;12223;42.650;23.364;2022-10-16T02:02:38;24.17;;;22.30;;
11098;SDS011;12223;42.650;23.364;2022-10-16T02:05:09;27.50;;;25.33;;
11098;SDS011;12223;42.650;23.364;2022-10-16T02:07:42;17.10;;;15.57;;
11098;SDS011;12223;42.650;23.364;2022-10-16T02:10:09;29.00;;;27.07;;
11098;SDS011;12223;42.650;23.364;2022-10-16T02:12:38;27.83;;;25.93;;
11098;SDS011;12223;42.650;23.364;2022-10-16T02:15:10;27.63;;;25.77;;
11098;SDS011;12223;42.650;23.364;2022-10-16T02:17:37;30.03;;;28.23;;
11098;SDS011;12223;42.650;23.364;2022-10-16T02:20:04;20.13;;;18.63;;
11098;SDS011;12223;42.650;23.364;2022-10-16T02:22:32;21.97;;;20.17;;
11098;SDS011;12223;42.650;23.364;2022-10-16T02:25:03;25.87;;;23.90;;
11098;SDS011;12223;42.650;23.364;2022-10-16T02:27:35;71.53;;;68.13;;
11098;SDS011;12223;42.650;23.364;2022-10-16T02:30:09;36.27;;;34.20;;
11098;SDS011;12223;42.650;23.364;2022-10-16T02:32:41;72.93;;;69.37;;
11098;SDS011;12223;42.650;23.364;2022-10-16T02:35:11;17.73;;;16.30;;
11098;SDS011;12223;42.650;23.364;2022-10-16T02:37:38;34.70;;;32.43;;
11098;SDS011;12223;42.650;23.364;2022-10-16T02:40:07;22.23;;;20.67;;
11098;SDS011;12223;42.650;23.364;2022-10-16T02:42:35;22.07;;;20.43;;
11098;SDS011;12223;42.650;23.364;2022-10-16T02:45:04;25.23;;;23.17;;
11098;SDS011;12223;42.650;23.364;2022-10-16T02:47:34;24.80;;;23.17;;
11098;SDS011;12223;42.650;23.364;2022-10-16T02:50:00;23.27;;;21.43;;
11098;SDS011;12223;42.650;23.364;2022-10-16T02:52:27;36.60;;;34.27;;
11098;SDS011;12223;42.650;23.364;2022-10-16T02:54:54;64.20;;;61.00;;
11098;SDS011;12223;42.650;23.364;2022-10-16T02:57:21;46.50;;;43.73;;
11098;SDS011;12223;42.650;23.364;2022-10-16T02:59:48;29.60;;;27.60;;
11098;SDS011;12223;42.650;23.364;2022-10-16T03:02:14;20.30;;;18.47;;
11098;SDS011;12223;42.650;23.364;2022-10-16T03:04:43;21.57;;;17.27;;
11098;SDS011;12223;42.650;23.364;2022-10-16T03:07:10;19.50;;;17.83;;
11098;SDS011;12223;42.650;23.364;2022-10-16T03:09:36;17.70;;;16.30;;
11098;SDS011;12223;42.650;23.364;2022-10-16T03:12:04;20.80;;;19.40;;
11098;SDS011;12223;42.650;23.364;2022-10-16T03:14:31;27.20;;;25.30;;
11098;SDS011;12223;42.650;23.364;2022-10-16T03:16:58;43.87;;;41.43;;
11098;SDS011;12223;42.650;23.364;2022-10-16T03:19:25;37.17;;;34.63;;
11098;SDS011;12223;42.650;23.364;2022-10-16T03:21:53;27.07;;;25.07;;
11098;SDS011;12223;42.650;23.364;2022-10-16T03:24:20;28.53;;;26.40;;
11098;SDS011;12223;42.650;23.364;2022-10-16T03:26:47;15.97;;;14.67;;
11098;SDS011;12223;42.650;23.364;2022-10-16T03:29:14;25.50;;;23.77;;
11098;SDS011;12223;42.650;23.364;2022-10-16T03:31:41;41.23;;;38.97;;
11098;SDS011;12223;42.650;23.364;2022-10-16T03:34:08;44.43;;;42.03;;
11098;SDS011;12223;42.650;23.364;2022-10-16T03:36:35;23.37;;;21.67;;
11098;SDS011;12223;42.650;23.364;2022-10-16T03:39:04;16.53;;;15.13;;
11098;SDS011;12223;42.650;23.364;2022-10-16T03:41:31;17.17;;;15.57;;
11098;SDS011;12223;42.650;23.364;2022-10-16T03:43:57;28.63;;;26.90;;
11098;SDS011;12223;42.650;23.364;2022-10-16T03:46:25;58.20;;;55.10;;
11098;SDS011;12223;42.650;23.364;2022-10-16T03:48:52;68.53;;;65.17;;
11098;SDS011;12223;42.650;23.364;2022-10-16T03:51:19;81.60;;;78.00;;
11098;SDS011;12223;42.650;23.364;2022-10-16T03:53:45;113.97;;;109.10;;
11098;SDS011;12223;42.650;23.364;2022-10-16T03:56:14;68.13;;;64.83;;
11098;SDS011;12223;42.650;23.364;2022-10-16T03:58:41;15.57;;;14.50;;
11098;SDS011;12223;42.650;23.364;2022-10-16T04:01:08;37.57;;;35.57;;
11098;SDS011;12223;42.650;23.364;2022-10-16T04:03:35;34.67;;;32.77;;
11098;SDS011;12223;42.650;23.364;2022-10-16T04:06:02;23.33;;;21.83;;
11098;SDS011;12223;42.650;23.364;2022-10-16T04:08:29;22.33;;;20.83;;
11098;SDS011;12223;42.650;23.364;2022-10-16T04:10:55;21.90;;;20.50;;
11098;SDS011;12223;42.650;23.364;2022-10-16T04:13:24;19.43;;;18.10;;
11098;SDS011;12223;42.650;23.364;2022-10-16T04:15:51;21.10;;;19.60;;
11098;SDS011;12223;42.650;23.364;2022-10-16T04:18:18;23.77;;;22.00;;
11098;SDS011;12223;42.650;23.364;2022-10-16T04:20:45;22.40;;;20.90;;
11098;SDS011;12223;42.650;23.364;2022-10-16T04:23:12;27.10;;;25.30;;
11098;SDS011;12223;42.650;23.364;2022-10-16T04:25:38;24.13;;;21.67;;
11098;SDS011;12223;42.650;23.364;2022-10-16T04:28:05;20.97;;;19.27;;
11098;SDS011;12223;42.650;23.364;2022-10-16T04:30:34;26.43;;;24.77;;
11098;SDS011;12223;42.650;23.364;2022-10-16T04:33:01;55.20;;;52.33;;
11098;SDS011;12223;42.650;23.364;2022-10-16T04:35:28;38.13;;;36.03;;
11098;SDS011;12223;42.650;23.364;2022-10-16T04:37:56;29.67;;;27.80;;
11098;SDS011;12223;42.650;23.364;2022-10-16T04:40:23;22.20;;;20.43;;
11098;SDS011;12223;42.650;23.364;2022-10-16T04:42:51;21.43;;;19.50;;
11098;SDS011;12223;42.650;23.364;2022-10-16T04:45:19;33.53;;;31.43;;
11098;SDS011;12223;42.650;23.364;2022-10-16T04:47:47;21.13;;;19.43;;
11098;SDS011;12223;42.650;23.364;2022-10-16T04:50:14;21.70;;;20.07;;
11098;SDS011;12223;42.650;23.364;2022-10-16T04:52:41;48.00;;;44.77;;
11098;SDS011;12223;42.650;23.364;2022-10-16T04:55:08;30.67;;;27.87;;
11098;SDS011;12223;42.650;23.364;2022-10-16T04:57:35;38.57;;;34.80;;
11098;SDS011;12223;42.650;23.364;2022-10-16T05:00:03;33.17;;;30.20;;
11098;SDS011;12223;42.650;23.364;2022-10-16T05:02:30;28.10;;;25.73;;
11098;SDS011;12223;42.650;23.364;2022-10-16T05:05:03;70.33;;;65.80;;
11098;SDS011;12223;42.650;23.364;2022-10-16T05:07:30;24.73;;;22.27;;
11098;SDS011;12223;42.650;23.364;2022-10-16T05:09:57;28.10;;;25.87;;
11098;SDS011;12223;42.650;23.364;2022-10-16T05:12:24;13.20;;;11.93;;
11098;SDS011;12223;42.650;23.364;2022-10-16T05:14:51;15.47;;;12.77;;
11098;SDS011;12223;42.650;23.364;2022-10-16T05:17:18;14.63;;;11.60;;
11098;SDS011;12223;42.650;23.364;2022-10-16T05:19:45;13.02;;;11.75;;
11098;SDS011;12223;42.650;23.364;2022-10-16T05:22:14;12.50;;;11.30;;
11098;SDS011;12223;42.650;23.364;2022-10-16T05:24:43;14.35;;;12.98;;
11098;SDS011;12223;42.650;23.364;2022-10-16T05:27:10;15.75;;;12.63;;
11098;SDS011;12223;42.650;23.364;2022-10-16T05:29:43;14.30;;;13.02;;
11098;SDS011;12223;42.650;23.364;2022-10-16T05:32:10;14.52;;;13.35;;
11098;SDS011;12223;42.650;23.364;2022-10-16T05:34:38;13.82;;;11.85;;
11098;SDS011;12223;42.650;23.364;2022-10-16T05:37:05;12.70;;;11.40;;
11098;SDS011;12223;42.650;23.364;2022-10-16T05:39:34;12.05;;;10.90;;
11098;SDS011;12223;42.650;23.364;2022-10-16T05:42:02;12.77;;;11.52;;
11098;SDS011;12223;42.650;23.364;2022-10-16T05:44:32;10.57;;;9.00;;
11098;SDS011;12223;42.650;23.364;2022-10-16T05:47:02;10.05;;;9.07;;
11098;SDS011;12223;42.650;23.364;2022-10-16T05:49:31;10.20;;;9.25;;
11098;SDS011;12223;42.650;23.364;2022-10-16T05:52:03;9.90;;;9.05;;
11098;SDS011;12223;42.650;23.364;2022-10-16T05:54:33;9.63;;;8.73;;
11098;SDS011;12223;42.650;23.364;2022-10-16T05:57:00;8.73;;;8.02;;
11098;SDS011;12223;42.650;23.364;2022-10-16T05:59:30;10.90;;;9.88;;
11098;SDS011;12223;42.650;23.364;2022-10-16T06:01:57;10.15;;;9.32;;
11098;SDS011;12223;42.650;23.364;2022-10-16T06:04:24;10.00;;;8.95;;
11098;SDS011;12223;42.650;23.364;2022-10-16T06:06:52;8.38;;;7.57;;
11098;SDS011;12223;42.650;23.364;2022-10-16T06:09:19;10.35;;;8.60;;
11098;SDS011;12223;42.650;23.364;2022-10-16T06:11:47;11.55;;;8.18;;
11098;SDS011;12223;42.650;23.364;2022-10-16T06:14:14;9.65;;;8.65;;
11098;SDS011;12223;42.650;23.364;2022-10-16T06:16:40;8.77;;;8.07;;
11098;SDS011;12223;42.650;23.364;2022-10-16T06:19:07;9.07;;;8.23;;
11098;SDS011;12223;42.650;23.364;2022-10-16T06:21:34;8.88;;;8.18;;
11098;SDS011;12223;42.650;23.364;2022-10-16T06:24:01;8.80;;;8.13;;
11098;SDS011;12223;42.650;23.364;2022-10-16T06:26:29;9.02;;;8.35;;
11098;SDS011;12223;42.650;23.364;2022-10-16T06:28:58;9.60;;;8.75;;
11098;SDS011;12223;42.650;23.364;2022-10-16T06:31:25;8.40;;;7.70;;
11098;SDS011;12223;42.650;23.364;2022-10-16T06:33:56;9.32;;;8.50;;
11098;SDS011;12223;42.650;23.364;2022-10-16T06:36:23;9.93;;;9.00;;
11098;SDS011;12223;42.650;23.364;2022-10-16T06:38:50;8.55;;;7.80;;
11098;SDS011;12223;42.650;23.364;2022-10-16T06:41:18;9.15;;;8.40;;
11098;SDS011;12223;42.650;23.364;2022-10-16T06:43:48;9.60;;;8.70;;
11098;SDS011;12223;42.650;23.364;2022-10-16T06:46:17;9.35;;;8.65;;
11098;SDS011;12223;42.650;23.364;2022-10-16T06:48:52;8.35;;;7.75;;
11098;SDS011;12223;42.650;23.364;2022-10-16T06:51:19;9.35;;;8.48;;
11098;SDS011;12223;42.650;23.364;2022-10-16T06:53:48;10.85;;;8.73;;
11098;SDS011;12223;42.650;23.364;2022-10-16T06:56:19;9.35;;;8.63;;
11098;SDS011;12223;42.650;23.364;2022-10-16T06:58:48;9.95;;;8.95;;
11098;SDS011;12223;42.650;23.364;2022-10-16T07:01:17;9.23;;;8.45;;
11098;SDS011;12223;42.650;23.364;2022-10-16T07:03:45;12.65;;;11.38;;
11098;SDS011;12223;42.650;23.364;2022-10-16T07:06:13;20.73;;;19.33;;
11098;SDS011;12223;42.650;23.364;2022-10-16T07:08:43;16.85;;;15.63;;
11098;SDS011;12223;42.650;23.364;2022-10-16T07:11:11;11.68;;;10.88;;
11098;SDS011;12223;42.650;23.364;2022-10-16T07:13:40;11.07;;;10.18;;
11098;SDS011;12223;42.650;23.364;2022-10-16T07:16:10;40.80;;;38.47;;
11098;SDS011;12223;42.650;23.364;2022-10-16T07:18:39;38.63;;;36.67;;
11098;SDS011;12223;42.650;23.364;2022-10-16T07:21:08;36.83;;;34.80;;
11098;SDS011;12223;42.650;23.364;2022-10-16T07:23:37;15.82;;;14.52;;
11098;SDS011;12223;42.650;23.364;2022-10-16T07:26:04;13.40;;;12.23;;
11098;SDS011;12223;42.650;23.364;2022-10-16T07:28:32;14.00;;;12.90;;
11098;SDS011;12223;42.650;23.364;2022-10-16T07:31:02;12.63;;;11.33;;
11098;SDS011;12223;42.650;23.364;2022-10-16T07:33:41;19.17;;;17.47;;
11098;SDS011;12223;42.650;23.364;2022-10-16T07:36:11;18.13;;;16.63;;
11098;SDS011;12223;42.650;23.364;2022-10-16T07:38:38;16.63;;;15.27;;
11098;SDS011;12223;42.650;23.364;2022-10-16T07:41:05;19.23;;;17.53;;
11098;SDS011;12223;42.650;23.364;2022-10-16T07:43:33;22.50;;;20.87;;
11098;SDS011;12223;42.650;23.364;2022-10-16T07:46:00;29.63;;;27.63;;
11098;SDS011;12223;42.650;23.364;2022-10-16T07:48:27;20.07;;;18.53;;
11098;SDS011;12223;42.650;23.364;2022-10-16T07:50:58;15.90;;;14.53;;
11098;SDS011;12223;42.650;23.364;2022-10-16T07:53:25;15.80;;;12.87;;
11098;SDS011;12223;42.650;23.364;2022-10-16T07:55:57;13.33;;;12.23;;
11098;SDS011;12223;42.650;23.364;2022-10-16T07:58:24;12.80;;;11.60;;
11098;SDS011;12223;42.650;23.364;2022-10-16T08:00:51;13.47;;;12.17;;
11098;SDS011;12223;42.650;23.364;2022-10-16T08:03:18;12.52;;;11.27;;
11098;SDS011;12223;42.650;23.364;2022-10-16T08:05:45;13.77;;;12.40;;
11098;SDS011;12223;42.650;23.364;2022-10-16T08:08:14;12.40;;;11.37;;
11098;SDS011;12223;42.650;23.364;2022-10-16T08:10:42;13.03;;;11.77;;
11098;SDS011;12223;42.650;23.364;2022-10-16T08:13:08;11.67;;;10.60;;
11098;SDS011;12223;42.650;23.364;2022-10-16T08:15:35;11.93;;;10.43;;
11098;SDS011;12223;42.650;23.364;2022-10-16T08:18:03;12.00;;;10.90;;
11098;SDS011;12223;42.650;23.364;2022-10-16T08:20:31;13.90;;;12.60;;
11098;SDS011;12223;42.650;23.364;2022-10-16T08:23:00;13.10;;;11.80;;
11098;SDS011;12223;42.650;23.364;2022-10-16T08:25:29;13.07;;;11.73;;
11098;SDS011;12223;42.650;23.364;2022-10-16T08:27:56;14.70;;;13.47;;
11098;SDS011;12223;42.650;23.364;2022-10-16T08:30:23;9.83;;;9.03;;
11098;SDS011;12223;42.650;23.364;2022-10-16T08:32:50;11.63;;;10.70;;
11098;SDS011;12223;42.650;23.364;2022-10-16T08:35:17;11.67;;;10.77;;
11098;SDS011;12223;42.650;23.364;2022-10-16T08:37:44;12.13;;;11.07;;
11098;SDS011;12223;42.650;23.364;2022-10-16T08:40:14;11.20;;;10.10;;
11098;SDS011;12223;42.650;23.364;2022-10-16T08:42:50;11.80;;;10.73;;
11098;SDS011;12223;42.650;23.364;2022-10-16T08:48:22;11.23;;;10.13;;
11098;SDS011;12223;42.650;23.364;2022-10-16T08:50:56;9.17;;;8.27;;
11098;SDS011;12223;42.650;23.364;2022-10-16T08:53:24;9.37;;;8.67;;
11098;SDS011;12223;42.650;23.364;2022-10-16T08:55:56;10.13;;;8.97;;
11098;SDS011;12223;42.650;23.364;2022-10-16T08:58:27;9.40;;;8.63;;
11098;SDS011;12223;42.650;23.364;2022-10-16T09:00:56;9.03;;;8.20;;
11098;SDS011;12223;42.650;23.364;2022-10-16T09:03:32;13.13;;;12.00;;
11098;SDS011;12223;42.650;23.364;2022-10-16T09:06:13;14.60;;;13.60;;
11098;SDS011;12223;42.650;23.364;2022-10-16T09:08:53;9.95;;;9.05;;
11098;SDS011;12223;42.650;23.364;2022-10-16T09:11:32;11.15;;;10.55;;
11098;SDS011;12223;42.650;23.364;2022-10-16T09:14:14;16.90;;;15.97;;
11098;SDS011;12223;42.650;23.364;2022-10-16T09:17:03;9.93;;;9.13;;
11098;SDS011;12223;42.650;23.364;2022-10-16T09:19:41;9.63;;;9.03;;
11098;SDS011;12223;42.650;23.364;2022-10-16T09:22:15;12.67;;;11.87;;
11098;SDS011;12223;42.650;23.364;2022-10-16T09:24:44;10.80;;;10.10;;
11098;SDS011;12223;42.650;23.364;2022-10-16T09:27:11;7.67;;;7.07;;
11098;SDS011;12223;42.650;23.364;2022-10-16T09:29:41;8.40;;;7.90;;
11098;SDS011;12223;42.650;23.364;2022-10-16T09:32:11;11.27;;;10.30;;
11098;SDS011;12223;42.650;23.364;2022-10-16T09:34:41;11.00;;;10.20;;
11098;SDS011;12223;42.650;23.364;2022-10-16T09:37:12;11.80;;;11.00;;
11098;SDS011;12223;42.650;23.364;2022-10-16T09:39:46;11.80;;;11.03;;
11098;SDS011;12223;42.650;23.364;2022-10-16T09:42:14;10.80;;;9.97;;
11098;SDS011;12223;42.650;23.364;2022-10-16T09:44:48;8.70;;;8.05;;
11098;SDS011;12223;42.650;23.364;2022-10-16T09:47:17;9.27;;;8.57;;
11098;SDS011;12223;42.650;23.364;2022-10-16T09:49:50;8.68;;;7.88;;
11098;SDS011;12223;42.650;23.364;2022-10-16T09:52:18;8.73;;;7.85;;
11098;SDS011;12223;42.650;23.364;2022-10-16T09:54:49;7.82;;;7.22;;
11098;SDS011;12223;42.650;23.364;2022-10-16T09:57:16;8.80;;;7.97;;
11098;SDS011;12223;42.650;23.364;2022-10-16T09:59:48;7.88;;;7.30;;
11098;SDS011;12223;42.650;23.364;2022-10-16T10:02:16;7.50;;;7.00;;
11098;SDS011;12223;42.650;23.364;2022-10-16T10:04:48;8.20;;;7.60;;
11098;SDS011;12223;42.650;23.364;2022-10-16T10:07:20;7.57;;;6.97;;
11098;SDS011;12223;42.650;23.364;2022-10-16T10:09:51;7.88;;;7.18;;
11098;SDS011;12223;42.650;23.364;2022-10-16T10:12:19;8.25;;;7.45;;
11098;SDS011;12223;42.650;23.364;2022-10-16T10:14:50;8.07;;;7.38;;
11098;SDS011;12223;42.650;23.364;2022-10-16T10:17:19;8.70;;;8.10;;
11098;SDS011;12223;42.650;23.364;2022-10-16T10:19:51;12.15;;;11.25;;
11098;SDS011;12223;42.650;23.364;2022-10-16T10:22:22;7.93;;;7.22;;
11098;SDS011;12223;42.650;23.364;2022-10-16T10:25:00;9.57;;;7.63;;
11098;SDS011;12223;42.650;23.364;2022-10-16T10:28:07;7.85;;;7.25;;
11098;SDS011;12223;42.650;23.364;2022-10-16T10:30:47;8.15;;;7.55;;
11098;SDS011;12223;42.650;23.364;2022-10-16T10:33:24;8.82;;;8.13;;
11098;SDS011;12223;42.650;23.364;2022-10-16T10:36:00;12.40;;;11.57;;
11098;SDS011;12223;42.650;23.364;2022-10-16T10:38:38;16.00;;;15.07;;
11098;SDS011;12223;42.650;23.364;2022-10-16T10:41:21;12.07;;;11.38;;
11098;SDS011;12223;42.650;23.364;2022-10-16T10:44:16;15.32;;;14.52;;
11098;SDS011;12223;42.650;23.364;2022-10-16T10:46:54;11.95;;;11.25;;
11098;SDS011;12223;42.650;23.364;2022-10-16T10:49:39;11.95;;;11.05;;
11098;SDS011;12223;42.650;23.364;2022-10-16T10:52:29;9.98;;;9.25;;
11098;SDS011;12223;42.650;23.364;2022-10-16T10:55:14;8.73;;;7.80;;
11098;SDS011;12223;42.650;23.364;2022-10-16T10:57:54;8.45;;;7.75;;
11098;SDS011;12223;42.650;23.364;2022-10-16T11:00:53;8.60;;;7.85;;
11098;SDS011;12223;42.650;23.364;2022-10-16T11:06:34;8.27;;;7.47;;
11098;SDS011;12223;42.650;23.364;2022-10-16T11:09:07;7.50;;;7.00;;
11098;SDS011;12223;42.650;23.364;2022-10-16T11:11:41;7.55;;;7.05;;
11098;SDS011;12223;42.650;23.364;2022-10-16T11:14:13;7.47;;;6.78;;
11098;SDS011;12223;42.650;23.364;2022-10-16T11:16:46;8.82;;;8.23;;
11098;SDS011;12223;42.650;23.364;2022-10-16T11:19:20;6.72;;;6.22;;
11098;SDS011;12223;42.650;23.364;2022-10-16T11:21:56;7.03;;;6.32;;
11098;SDS011;12223;42.650;23.364;2022-10-16T11:24:33;6.20;;;5.80;;
11098;SDS011;12223;42.650;23.364;2022-10-16T11:27:08;6.90;;;6.50;;
11098;SDS011;12223;42.650;23.364;2022-10-16T11:29:40;7.40;;;6.90;;
11098;SDS011;12223;42.650;23.364;2022-10-16T11:32:18;7.30;;;6.70;;
11098;SDS011;12223;42.650;23.364;2022-10-16T11:34:50;7.43;;;6.82;;
11098;SDS011;12223;42.650;23.364;2022-10-16T11:37:21;6.90;;;6.40;;
11098;SDS011;12223;42.650;23.364;2022-10-16T11:39:57;6.97;;;6.40;;
11098;SDS011;12223;42.650;23.364;2022-10-16T11:42:37;7.80;;;7.10;;
11098;SDS011;12223;42.650;23.364;2022-10-16T11:45:13;7.40;;;7.00;;
11098;SDS011;12223;42.650;23.364;2022-10-16T11:47:51;8.15;;;7.60;;
11098;SDS011;12223;42.650;23.364;2022-10-16T11:50:28;8.25;;;7.65;;
11098;SDS011;12223;42.650;23.364;2022-10-16T11:53:03;14.98;;;11.25;;
11098;SDS011;12223;42.650;23.364;2022-10-16T11:55:38;9.85;;;8.85;;
11098;SDS011;12223;42.650;23.364;2022-10-16T11:58:07;7.55;;;7.03;;
11098;SDS011;12223;42.650;23.364;2022-10-16T12:00:40;10.93;;;9.95;;
11098;SDS011;12223;42.650;23.364;2022-10-16T12:03:15;7.90;;;7.30;;
11098;SDS011;12223;42.650;23.364;2022-10-16T12:05:51;7.68;;;7.18;;
11098;SDS011;12223;42.650;23.364;2022-10-16T12:08:26;7.45;;;6.65;;
11098;SDS011;12223;42.650;23.364;2022-10-16T12:11:05;7.18;;;6.57;;
11098;SDS011;12223;42.650;23.364;2022-10-16T12:13:33;7.25;;;6.75;;
11098;SDS011;12223;42.650;23.364;2022-10-16T12:18:49;7.28;;;6.78;;
11098;SDS011;12223;42.650;23.364;2022-10-16T12:21:36;7.53;;;6.90;;
11098;SDS011;12223;42.650;23.364;2022-10-16T12:24:05;7.68;;;7.07;;
11098;SDS011;12223;42.650;23.364;2022-10-16T12:26:32;7.85;;;7.07;;
11098;SDS011;12223;42.650;23.364;2022-10-16T12:29:12;7.90;;;7.25;;
11098;SDS011;12223;42.650;23.364;2022-10-16T12:31:47;7.18;;;6.68;;
11098;SDS011;12223;42.650;23.364;2022-10-16T12:34:20;6.85;;;6.32;;
11098;SDS011;12223;42.650;23.364;2022-10-16T12:36:49;6.78;;;6.38;;
11098;SDS011;12223;42.650;23.364;2022-10-16T12:39:21;7.13;;;6.63;;
11098;SDS011;12223;42.650;23.364;2022-10-16T12:42:00;6.63;;;6.22;;
11098;SDS011;12223;42.650;23.364;2022-10-16T12:44:31;7.28;;;6.78;;
11098;SDS011;12223;42.650;23.364;2022-10-16T12:47:00;7.53;;;6.95;;
11098;SDS011;12223;42.650;23.364;2022-10-16T12:49:31;7.60;;;6.95;;
11098;SDS011;12223;42.650;23.364;2022-10-16T12:52:03;8.10;;;6.53;;
11098;SDS011;12223;42.650;23.364;2022-10-16T12:54:34;7.07;;;6.43;;
11098;SDS011;12223;42.650;23.364;2022-10-16T12:57:08;6.63;;;6.15;;
11098;SDS011;12223;42.650;23.364;2022-10-16T12:59:47;7.40;;;6.88;;
11098;SDS011;12223;42.650;23.364;2022-10-16T13:02:45;6.57;;;6.18;;
11098;SDS011;12223;42.650;23.364;2022-10-16T13:05:23;6.97;;;6.47;;
11098;SDS011;12223;42.650;23.364;2022-10-16T13:08:13;7.03;;;6.53;;
11098;SDS011;12223;42.650;23.364;2022-10-16T13:10:58;6.53;;;6.13;;
11098;SDS011;12223;42.650;23.364;2022-10-16T13:13:38;6.53;;;6.13;;
11098;SDS011;12223;42.650;23.364;2022-10-16T13:16:21;8.80;;;6.93;;
11098;SDS011;12223;42.650;23.364;2022-10-16T13:18:58;7.32;;;6.78;;
11098;SDS011;12223;42.650;23.364;2022-10-16T13:21:35;7.57;;;6.97;;
11098;SDS011;12223;42.650;23.364;2022-10-16T13:24:13;8.15;;;7.63;;
11098;SDS011;12223;42.650;23.364;2022-10-16T13:26:52;7.60;;;7.00;;
11098;SDS011;12223;42.650;23.364;2022-10-16T13:29:23;7.88;;;7.25;;
11098;SDS011;12223;42.650;23.364;2022-10-16T13:31:50;7.72;;;7.22;;
11098;SDS011;12223;42.650;23.364;2022-10-16T13:34:17;8.00;;;7.50;;
11098;SDS011;12223;42.650;23.364;2022-10-16T13:36:48;8.52;;;7.35;;
11098;SDS011;12223;42.650;23.364;2022-10-16T13:39:20;7.93;;;7.32;;
11098;SDS011;12223;42.650;23.364;2022-10-16T13:42:00;7.97;;;7.38;;
11098;SDS011;12223;42.650;23.364;2022-10-16T13:44:29;11.77;;;8.35;;
11098;SDS011;12223;42.650;23.364;2022-10-16T13:47:00;8.50;;;7.55;;
11098;SDS011;12223;42.650;23.364;2022-10-16T13:49:27;7.60;;;7.00;;
11098;SDS011;12223;42.650;23.364;2022-10-16T13:51:56;7.82;;;7.32;;
11098;SDS011;12223;42.650;23.364;2022-10-16T13:54:25;7.65;;;7.15;;
11098;SDS011;12223;42.650;23.364;2022-10-16T13:56:53;7.78;;;7.22;;
11098;SDS011;12223;42.650;23.364;2022-10-16T13:59:25;7.80;;;7.38;;
11098;SDS011;12223;42.650;23.364;2022-10-16T14:01:58;8.25;;;7.47;;
11098;SDS011;12223;42.650;23.364;2022-10-16T14:04:32;8.55;;;7.95;;
11098;SDS011;12223;42.650;23.364;2022-10-16T14:06:59;8.48;;;7.97;;
11098;SDS011;12223;42.650;23.364;2022-10-16T14:09:26;8.27;;;7.53;;
11098;SDS011;12223;42.650;23.364;2022-10-16T14:11:55;8.88;;;8.23;;
11098;SDS011;12223;42.650;23.364;2022-10-16T14:14:25;8.38;;;7.78;;
11098;SDS011;12223;42.650;23.364;2022-10-16T14:17:00;8.55;;;7.90;;
11098;SDS011;12223;42.650;23.364;2022-10-16T14:19:29;7.55;;;7.13;;
11098;SDS011;12223;42.650;23.364;2022-10-16T14:21:57;7.78;;;7.38;;
11098;SDS011;12223;42.650;23.364;2022-10-16T14:24:31;8.35;;;7.70;;
11098;SDS011;12223;42.650;23.364;2022-10-16T14:27:00;7.55;;;7.07;;
11098;SDS011;12223;42.650;23.364;2022-10-16T14:29:29;7.75;;;7.15;;
11098;SDS011;12223;42.650;23.364;2022-10-16T14:31:57;7.75;;;7.15;;
11098;SDS011;12223;42.650;23.364;2022-10-16T14:34:27;7.70;;;7.20;;
11098;SDS011;12223;42.650;23.364;2022-10-16T14:37:01;7.85;;;7.30;;
11098;SDS011;12223;42.650;23.364;2022-10-16T14:39:34;7.90;;;7.22;;
11098;SDS011;12223;42.650;23.364;2022-10-16T14:42:02;7.63;;;7.03;;
11098;SDS011;12223;42.650;23.364;2022-10-16T14:44:31;7.65;;;7.15;;
11098;SDS011;12223;42.650;23.364;2022-10-16T14:47:06;7.78;;;7.38;;
11098;SDS011;12223;42.650;23.364;2022-10-16T14:49:35;9.25;;;8.45;;
11098;SDS011;12223;42.650;23.364;2022-10-16T14:52:04;10.07;;;9.10;;